Time;durP1;ratioP1;P1;durP2;ratioP2;P2;SDS_P1;SDS_P2;PMS_P1;PMS_P2;Temp;Humidity;BMP_temperature;BMP_pressure;BME280_temperature;BME280_humidity;BME280_pressure;Samples;Min_cycle;Max_cycle;Signal;HPM_P1;HPM_P2
2022/05/06 00:01:05;;;;;;;9.50;8.30;;;10.40;99.90;;;;;;4990795;28;20466;-67
2022/05/06 00:03:55;;;;;;;9.63;8.43;;;10.30;99.90;;;;;;4985584;28;20480;-66
2022/05/06 00:06:43;;;;;;;10.43;8.67;;;10.20;99.90;;;;;;4983288;28;20907;-66
2022/05/06 00:09:31;;;;;;;10.03;8.47;;;10.20;99.90;;;;;;4982305;28;20629;-67
2022/05/06 00:12:20;;;;;;;8.40;7.50;;;10.20;99.90;;;;;;4982509;28;20481;-67
2022/05/06 00:15:09;;;;;;;10.60;9.50;;;10.10;99.90;;;;;;4982743;28;20601;-67
2022/05/06 00:17:57;;;;;;;9.37;8.47;;;10.10;99.90;;;;;;4984608;28;20467;-67
2022/05/06 00:20:47;;;;;;;10.00;9.00;;;10.10;99.90;;;;;;4989418;28;20969;-67
2022/05/06 00:23:36;;;;;;;10.93;9.03;;;10.00;99.90;;;;;;4992378;28;20557;-67
2022/05/06 00:26:24;;;;;;;10.73;9.60;;;10.00;99.90;;;;;;4992066;28;20456;-67
2022/05/06 00:29:12;;;;;;;10.20;9.10;;;10.00;99.90;;;;;;4991058;28;20504;-67
2022/05/06 00:32:02;;;;;;;12.00;10.13;;;9.90;99.90;;;;;;4990203;28;20539;-67
2022/05/06 00:34:50;;;;;;;10.67;8.77;;;9.90;99.90;;;;;;4986451;28;20544;-67
2022/05/06 00:37:39;;;;;;;10.10;8.10;;;9.90;99.90;;;;;;4992575;28;20466;-67
2022/05/06 00:40:27;;;;;;;10.00;8.27;;;9.90;99.90;;;;;;4993609;28;20584;-67
2022/05/06 00:43:15;;;;;;;10.40;9.30;;;9.80;99.90;;;;;;4988473;28;20564;-67
2022/05/06 00:46:04;;;;;;;9.57;8.60;;;9.70;99.90;;;;;;4993288;28;20588;-67
2022/05/06 00:48:52;;;;;;;10.67;8.80;;;9.70;99.90;;;;;;4990876;28;20937;-67
2022/05/06 00:51:41;;;;;;;10.40;9.37;;;9.70;99.90;;;;;;4990562;28;20512;-67
2022/05/06 00:54:32;;;;;;;12.50;8.90;;;9.70;99.90;;;;;;4992317;28;20458;-67
2022/05/06 00:57:21;;;;;;;9.97;8.80;;;9.70;99.90;;;;;;4993402;28;20469;-67
2022/05/06 01:00:19;;;;;;;9.27;8.13;;;9.60;99.90;;;;;;4988764;28;21091;-67
2022/05/06 01:03:07;;;;;;;11.40;9.93;;;9.60;99.90;;;;;;4981947;28;20572;-67
2022/05/06 01:05:55;;;;;;;11.53;10.13;;;9.50;99.90;;;;;;4983084;28;21439;-65
2022/05/06 01:08:44;;;;;;;9.57;8.57;;;9.50;99.90;;;;;;4986281;28;20481;-65
2022/05/06 01:11:34;;;;;;;9.97;8.70;;;9.50;99.90;;;;;;4982104;28;20544;-66
2022/05/06 01:14:33;;;;;;;12.93;10.20;;;9.50;99.90;;;;;;4984193;28;20560;-65
2022/05/06 01:17:22;;;;;;;10.10;8.90;;;9.40;99.90;;;;;;4987833;28;20481;-67
2022/05/06 01:20:11;;;;;;;14.10;9.90;;;9.30;99.90;;;;;;4989485;28;20552;-67
2022/05/06 01:23:01;;;;;;;11.73;9.87;;;9.30;99.90;;;;;;4981832;28;20504;-65
2022/05/06 01:25:49;;;;;;;11.80;9.80;;;9.30;99.90;;;;;;4983847;28;20526;-65
2022/05/06 01:28:39;;;;;;;13.57;9.60;;;9.30;99.90;;;;;;4986905;28;20569;-65
2022/05/06 01:31:28;;;;;;;14.40;9.57;;;9.20;99.90;;;;;;4983383;28;20632;-65
2022/05/06 01:34:17;;;;;;;11.40;10.20;;;9.20;99.90;;;;;;4986849;28;20619;-67
2022/05/06 01:37:08;;;;;;;14.20;10.07;;;9.20;99.90;;;;;;4979716;28;20533;-65
2022/05/06 01:40:00;;;;;;;12.90;10.10;;;9.20;99.90;;;;;;4983989;28;20508;-65
2022/05/06 01:42:51;;;;;;;13.90;10.67;;;9.20;99.90;;;;;;4984504;28;20575;-65
2022/05/06 01:45:41;;;;;;;12.73;9.87;;;9.10;99.90;;;;;;4989615;28;20473;-65
2022/05/06 01:48:30;;;;;;;10.60;9.50;;;9.10;99.90;;;;;;4987652;28;20487;-65
2022/05/06 01:51:20;;;;;;;11.43;9.93;;;9.10;99.90;;;;;;4986398;28;22540;-65
2022/05/06 01:54:08;;;;;;;12.10;10.00;;;9.10;99.90;;;;;;4990554;28;20538;-65
2022/05/06 01:56:59;;;;;;;13.47;10.57;;;9.00;99.90;;;;;;4990380;28;20623;-65
2022/05/06 01:59:47;;;;;;;13.33;10.03;;;9.00;99.90;;;;;;4991928;28;20486;-65
2022/05/06 02:02:36;;;;;;;11.57;10.00;;;9.00;99.90;;;;;;4992219;28;20541;-66
2022/05/06 02:05:24;;;;;;;11.13;9.70;;;8.90;99.90;;;;;;4990220;28;20445;-67
2022/05/06 02:08:14;;;;;;;12.70;10.00;;;8.90;99.90;;;;;;4985365;28;20472;-66
2022/05/06 02:11:03;;;;;;;10.30;9.20;;;8.90;99.90;;;;;;4991744;28;20572;-66
2022/05/06 02:13:52;;;;;;;13.00;9.87;;;8.90;99.90;;;;;;4988717;28;20504;-66
2022/05/06 02:16:41;;;;;;;13.97;10.10;;;8.90;99.90;;;;;;4991457;28;20984;-66
2022/05/06 02:19:29;;;;;;;12.20;9.80;;;8.80;99.90;;;;;;4989151;28;20477;-66
2022/05/06 02:22:17;;;;;;;13.73;10.70;;;8.80;99.90;;;;;;4988601;28;20485;-66
2022/05/06 02:25:09;;;;;;;13.40;10.77;;;8.80;99.90;;;;;;4992889;28;20451;-66
2022/05/06 02:27:58;;;;;;;13.40;10.40;;;8.80;99.90;;;;;;4994088;28;20741;-66
2022/05/06 02:33:53;;;;;;;11.07;9.13;;;8.80;99.90;;;;;;4993190;28;20484;-67
2022/05/06 02:36:42;;;;;;;12.73;9.67;;;8.80;99.90;;;;;;4992796;28;20887;-66
2022/05/06 02:39:30;;;;;;;13.63;10.10;;;8.80;99.90;;;;;;4989474;28;20500;-66
2022/05/06 02:42:18;;;;;;;11.60;9.50;;;8.70;99.90;;;;;;4992310;28;20526;-66
2022/05/06 02:45:07;;;;;;;12.10;9.97;;;8.70;99.90;;;;;;4989498;28;20484;-66
2022/05/06 02:47:57;;;;;;;11.73;10.00;;;8.70;99.90;;;;;;4995675;28;21041;-66
2022/05/06 02:50:47;;;;;;;12.97;9.70;;;8.60;99.90;;;;;;4991904;28;20460;-66
2022/05/06 02:53:35;;;;;;;12.83;9.73;;;8.60;99.90;;;;;;4981034;28;20486;-66
2022/05/06 02:56:23;;;;;;;10.03;9.03;;;8.60;99.90;;;;;;4986988;28;20551;-66
2022/05/06 02:59:12;;;;;;;12.47;10.00;;;8.60;99.90;;;;;;4994977;28;20594;-66
2022/05/06 03:02:00;;;;;;;13.50;10.40;;;8.50;99.90;;;;;;4990351;28;20560;-66
2022/05/06 03:04:49;;;;;;;13.03;10.50;;;8.50;99.90;;;;;;4994583;28;20464;-66
2022/05/06 03:07:38;;;;;;;11.43;10.20;;;8.50;99.90;;;;;;4989382;28;20453;-66
2022/05/06 03:10:26;;;;;;;13.30;10.73;;;8.40;99.90;;;;;;4991941;28;20457;-66
2022/05/06 03:13:14;;;;;;;12.43;9.90;;;8.40;99.90;;;;;;4984927;28;20512;-65
2022/05/06 03:16:03;;;;;;;13.30;10.30;;;8.40;99.90;;;;;;4989375;28;20882;-66
2022/05/06 03:18:51;;;;;;;12.37;10.90;;;8.40;99.90;;;;;;4993312;28;20864;-66
2022/05/06 03:21:41;;;;;;;15.77;10.67;;;8.30;99.90;;;;;;4988662;28;20489;-66
2022/05/06 03:24:29;;;;;;;12.50;10.90;;;8.30;99.90;;;;;;4991925;28;20655;-67
2022/05/06 03:30:23;;;;;;;13.43;10.93;;;8.30;99.90;;;;;;4985902;28;20488;-65
2022/05/06 03:33:13;;;;;;;13.33;11.03;;;8.30;99.90;;;;;;4991880;28;20830;-65
2022/05/06 03:36:01;;;;;;;15.23;11.23;;;8.20;99.90;;;;;;4991263;28;21057;-65
2022/05/06 03:38:51;;;;;;;14.87;10.37;;;8.20;99.90;;;;;;4993176;28;20507;-65
2022/05/06 03:41:39;;;;;;;14.57;11.10;;;8.20;99.90;;;;;;4987613;28;20640;-65
2022/05/06 03:44:27;;;;;;;14.73;11.30;;;8.20;99.90;;;;;;4992247;28;21117;-65
2022/05/06 03:47:15;;;;;;;12.80;10.90;;;8.20;99.90;;;;;;4994773;28;20555;-66
2022/05/06 03:53:10;;;;;;;12.23;10.63;;;8.00;99.90;;;;;;4988754;28;20997;-66
2022/05/06 03:55:59;;;;;;;16.57;11.90;;;8.00;99.90;;;;;;4990016;28;20515;-66
2022/05/06 03:58:47;;;;;;;13.53;11.27;;;8.00;99.90;;;;;;4994657;28;20481;-65
2022/05/06 04:01:35;;;;;;;16.30;12.53;;;8.00;99.90;;;;;;4990560;28;21065;-67
2022/05/06 04:04:26;;;;;;;16.73;12.77;;;8.00;99.90;;;;;;4988581;28;20586;-64
2022/05/06 04:07:15;;;;;;;15.90;12.10;;;8.00;99.90;;;;;;4990352;28;20547;-65
2022/05/06 04:10:04;;;;;;;17.40;13.17;;;7.90;99.90;;;;;;4996367;28;20481;-65
2022/05/06 04:12:54;;;;;;;16.37;12.00;;;7.90;99.90;;;;;;4990248;28;20492;-65
2022/05/06 04:15:42;;;;;;;19.27;12.90;;;8.00;99.90;;;;;;4992752;28;20456;-65
2022/05/06 04:18:31;;;;;;;16.10;12.40;;;8.00;99.90;;;;;;4990798;28;20504;-65
2022/05/06 04:24:24;;;;;;;18.93;13.30;;;8.00;99.90;;;;;;4995158;28;20485;-65
2022/05/06 04:27:13;;;;;;;19.90;14.50;;;8.00;99.90;;;;;;4992592;28;20596;-65
2022/05/06 04:30:02;;;;;;;20.30;14.00;;;7.90;99.90;;;;;;4991572;28;20964;-65
2022/05/06 04:32:50;;;;;;;19.13;13.93;;;8.00;99.90;;;;;;4990845;28;20567;-65
2022/05/06 04:35:38;;;;;;;14.50;11.70;;;8.00;99.90;;;;;;4989347;28;20470;-65
2022/05/06 04:38:28;;;;;;;14.93;12.40;;;8.00;99.90;;;;;;4991645;28;20484;-65
2022/05/06 04:41:16;;;;;;;14.47;12.37;;;8.00;99.90;;;;;;4983837;28;20960;-65
2022/05/06 04:44:04;;;;;;;16.40;13.67;;;8.10;99.90;;;;;;4982274;28;20484;-65
2022/05/06 04:46:54;;;;;;;14.70;12.90;;;8.00;99.90;;;;;;4992059;28;20492;-65
2022/05/06 04:49:43;;;;;;;13.43;11.50;;;8.00;99.90;;;;;;4983590;28;20474;-65
2022/05/06 04:52:31;;;;;;;16.97;13.27;;;8.10;99.90;;;;;;4989274;28;20473;-66
2022/05/06 04:55:19;;;;;;;19.60;13.60;;;8.10;99.90;;;;;;4986617;28;20960;-65
2022/05/06 04:58:09;;;;;;;25.57;15.97;;;8.10;99.90;;;;;;4976883;28;20871;-64
2022/05/06 05:00:57;;;;;;;24.80;16.13;;;8.10;99.90;;;;;;4975135;28;20457;-65
2022/05/06 05:03:47;;;;;;;30.77;17.60;;;8.10;99.90;;;;;;4989327;28;20513;-66
2022/05/06 05:06:35;;;;;;;28.27;17.90;;;8.20;99.90;;;;;;4983091;28;20487;-66
2022/05/06 05:09:23;;;;;;;33.70;18.20;;;8.20;99.90;;;;;;4991591;28;21007;-66
2022/05/06 05:12:12;;;;;;;32.00;18.47;;;8.20;99.90;;;;;;4976687;28;20478;-65
2022/05/06 05:15:00;;;;;;;32.50;19.33;;;8.20;99.90;;;;;;4980357;28;20456;-66
2022/05/06 05:17:49;;;;;;;29.40;20.57;;;8.20;99.90;;;;;;4988589;28;20469;-65
2022/05/06 05:20:39;;;;;;;35.83;19.63;;;8.30;99.90;;;;;;4979725;28;20834;-66
2022/05/06 05:23:29;;;;;;;34.17;20.67;;;8.30;99.90;;;;;;4967884;28;21233;-66
2022/05/06 05:26:17;;;;;;;30.70;19.40;;;8.40;99.90;;;;;;4972209;28;21424;-66
2022/05/06 05:29:05;;;;;;;30.93;18.90;;;8.40;99.90;;;;;;4980912;28;20552;-67
2022/05/06 05:31:54;;;;;;;34.40;20.80;;;8.50;99.90;;;;;;4975217;28;21338;-66
2022/05/06 05:34:43;;;;;;;33.40;19.70;;;8.50;99.90;;;;;;4971228;28;20534;-66
2022/05/06 05:37:32;;;;;;;33.53;19.83;;;8.50;99.90;;;;;;4975195;28;20808;-65
2022/05/06 05:40:20;;;;;;;35.23;21.53;;;8.50;99.90;;;;;;4969937;28;20465;-65
2022/05/06 05:48:19;;;;;;;33.03;20.70;;;8.60;99.90;;;;;;4972246;28;21263;-65
2022/05/06 05:49:23;;;;;;;27.03;18.80;;;8.70;99.90;;;;;;4988835;28;20516;-66
2022/05/06 05:52:11;;;;;;;34.50;20.43;;;8.70;99.90;;;;;;4973412;28;22742;-65
2022/05/06 05:55:01;;;;;;;34.40;20.63;;;8.70;99.90;;;;;;4990449;28;21011;-66
2022/05/06 05:57:49;;;;;;;32.80;19.73;;;8.70;99.90;;;;;;4986762;28;20936;-66
2022/05/06 06:00:37;;;;;;;29.63;20.80;;;8.80;99.90;;;;;;4977833;28;20466;-67
2022/05/06 06:03:25;;;;;;;28.23;19.30;;;8.80;99.90;;;;;;4982310;28;20488;-67
2022/05/06 06:06:14;;;;;;;33.37;21.10;;;8.90;99.90;;;;;;4987422;28;20828;-66
2022/05/06 06:09:02;;;;;;;32.80;22.13;;;8.90;99.90;;;;;;4975331;28;20993;-66
2022/05/06 06:11:51;;;;;;;31.40;21.00;;;8.90;99.90;;;;;;4989766;28;20460;-66
2022/05/06 06:14:40;;;;;;;37.70;21.97;;;9.00;99.90;;;;;;4980965;28;20458;-66
2022/05/06 06:17:28;;;;;;;27.20;19.87;;;9.00;99.90;;;;;;4984032;28;20493;-66
2022/05/06 06:20:17;;;;;;;27.37;19.43;;;9.10;99.90;;;;;;4982850;28;20465;-66
2022/05/06 06:23:05;;;;;;;31.37;21.33;;;9.10;99.90;;;;;;4978524;28;20504;-66
2022/05/06 06:25:53;;;;;;;25.83;20.57;;;9.20;99.90;;;;;;4984823;28;21114;-66
2022/05/06 06:28:43;;;;;;;28.47;20.77;;;9.30;99.90;;;;;;4967847;28;20507;-67
2022/05/06 06:31:32;;;;;;;26.83;21.97;;;9.40;99.90;;;;;;4975908;28;20460;-66
2022/05/06 06:34:20;;;;;;;28.87;21.57;;;9.40;99.90;;;;;;4972789;28;20481;-66
2022/05/06 06:37:09;;;;;;;26.73;19.20;;;9.40;99.90;;;;;;4973728;28;20929;-66
2022/05/06 06:39:57;;;;;;;31.00;21.97;;;9.50;99.90;;;;;;4979543;28;20480;-66
2022/05/06 06:42:46;;;;;;;32.27;22.97;;;9.60;99.90;;;;;;4978187;28;20551;-67
2022/05/06 06:45:38;;;;;;;30.70;22.23;;;9.70;99.90;;;;;;4971329;28;20450;-67
2022/05/06 06:48:26;;;;;;;34.17;21.53;;;9.70;99.90;;;;;;4978665;28;21103;-67
2022/05/06 06:51:14;;;;;;;31.43;22.67;;;9.80;99.90;;;;;;4968548;28;20492;-67
2022/05/06 06:54:03;;;;;;;26.30;22.07;;;9.90;99.90;;;;;;4976044;28;20684;-67
2022/05/06 06:56:51;;;;;;;32.00;22.47;;;9.90;99.90;;;;;;4983467;28;20544;-66
2022/05/06 06:59:40;;;;;;;29.20;22.30;;;10.00;99.90;;;;;;4983300;28;20477;-66
2022/05/06 07:02:30;;;;;;;30.10;23.07;;;10.10;99.90;;;;;;4987668;28;20481;-66
2022/05/06 07:05:18;;;;;;;29.03;22.10;;;10.20;99.90;;;;;;4974234;28;20465;-66
2022/05/06 07:14:28;;;;;;;28.10;22.67;;;10.40;99.90;;;;;;4966939;28;20584;-66
2022/05/06 07:17:17;;;;;;;30.03;22.50;;;10.50;99.90;;;;;;4967838;28;20470;-66
2022/05/06 07:20:11;;;;;;;29.17;22.50;;;10.60;99.90;;;;;;4975489;28;20511;-67
2022/05/06 07:22:59;;;;;;;25.23;19.63;;;10.60;99.90;;;;;;4976856;28;20473;-67
2022/05/06 07:25:48;;;;;;;24.30;20.10;;;10.70;99.90;;;;;;4968179;28;20974;-67
2022/05/06 07:28:36;;;;;;;28.77;22.10;;;10.80;99.90;;;;;;4976377;28;20504;-67
2022/05/06 07:31:24;;;;;;;29.17;21.70;;;10.90;99.90;;;;;;4976774;28;20461;-67
2022/05/06 07:34:15;;;;;;;27.50;21.43;;;11.00;99.90;;;;;;4974211;28;20485;-67
2022/05/06 07:37:05;;;;;;;27.70;22.13;;;11.00;99.90;;;;;;4978797;28;20497;-67
2022/05/06 07:39:53;;;;;;;27.10;20.03;;;11.10;99.90;;;;;;4980157;28;20484;-67
2022/05/06 07:42:42;;;;;;;26.90;21.20;;;11.20;99.90;;;;;;4978718;28;20485;-67
2022/05/06 07:45:30;;;;;;;25.60;21.30;;;11.30;99.90;;;;;;4982779;28;20450;-67
2022/05/06 07:48:19;;;;;;;28.10;22.20;;;11.40;99.90;;;;;;4975842;28;20472;-67
2022/05/06 07:51:07;;;;;;;28.83;20.20;;;11.50;99.90;;;;;;4974569;28;21019;-67
2022/05/06 07:53:57;;;;;;;28.30;20.00;;;11.60;99.90;;;;;;4972070;28;20531;-66
2022/05/06 07:56:45;;;;;;;28.40;18.80;;;11.70;99.90;;;;;;4979294;28;20447;-66
2022/05/06 07:59:33;;;;;;;22.83;18.50;;;11.80;99.90;;;;;;4992674;28;21155;-66
2022/05/06 08:05:28;;;;;;;26.00;19.73;;;12.00;99.90;;;;;;4978017;28;20456;-66
2022/05/06 08:08:17;;;;;;;25.90;19.80;;;12.10;99.90;;;;;;4982389;28;20474;-66
2022/05/06 08:11:06;;;;;;;23.83;17.80;;;12.30;99.90;;;;;;4981028;28;20580;-68
2022/05/06 08:13:55;;;;;;;28.00;19.70;;;12.30;99.90;;;;;;4974076;28;21458;-66
2022/05/06 08:16:43;;;;;;;22.57;18.80;;;12.40;99.90;;;;;;4982748;28;20461;-67
2022/05/06 08:19:32;;;;;;;28.77;20.37;;;12.60;99.90;;;;;;4983962;28;20484;-67
2022/05/06 08:22:20;;;;;;;24.37;19.33;;;12.70;99.90;;;;;;4979477;28;20489;-67
2022/05/06 08:25:09;;;;;;;25.00;20.17;;;12.80;99.90;;;;;;4985584;28;20452;-67
2022/05/06 08:28:19;;;;;;;27.10;19.83;;;12.90;99.90;;;;;;4977685;28;20832;-67
2022/05/06 08:31:08;;;;;;;27.60;21.07;;;13.00;99.90;;;;;;4983720;28;20528;-67
2022/05/06 08:33:56;;;;;;;24.40;18.97;;;13.10;99.90;;;;;;4981339;28;20472;-68
2022/05/06 08:36:44;;;;;;;22.77;18.57;;;13.20;99.90;;;;;;4987265;28;20545;-66
2022/05/06 08:39:33;;;;;;;26.97;18.07;;;13.20;99.90;;;;;;4980139;28;20583;-67
2022/05/06 08:42:23;;;;;;;25.57;17.17;;;13.40;99.90;;;;;;4977886;28;20510;-67
2022/05/06 08:51:31;;;;;;;24.83;16.90;;;13.70;99.90;;;;;;4988387;28;20449;-67
2022/05/06 08:54:20;;;;;;;18.97;16.73;;;13.90;99.90;;;;;;4981469;28;20473;-67
2022/05/06 08:57:10;;;;;;;20.30;16.50;;;14.00;99.90;;;;;;4987408;28;20461;-67
2022/05/06 08:59:58;;;;;;;16.00;13.97;;;14.00;99.90;;;;;;4981985;28;20516;-66
2022/05/06 09:02:48;;;;;;;17.73;14.43;;;14.10;99.90;;;;;;4972585;28;20486;-66
2022/05/06 09:05:49;;;;;;;18.30;14.50;;;14.20;99.90;;;;;;4985519;28;20604;-67
2022/05/06 09:08:42;;;;;;;17.87;14.47;;;14.30;99.90;;;;;;4982941;28;20558;-66
2022/05/06 09:17:43;;;;;;;19.83;14.23;;;14.60;99.90;;;;;;4976168;28;20492;-67
2022/05/06 09:20:32;;;;;;;14.00;12.60;;;14.80;99.90;;;;;;4983884;28;20620;-67
2022/05/06 09:23:24;;;;;;;16.17;14.30;;;14.80;99.90;;;;;;4972684;28;20481;-67
2022/05/06 09:26:18;;;;;;;14.57;12.90;;;14.90;99.90;;;;;;4977569;28;20445;-66
2022/05/06 09:29:06;;;;;;;13.57;12.07;;;15.00;99.90;;;;;;4975281;28;20481;-67
2022/05/06 09:31:56;;;;;;;16.20;12.37;;;15.10;99.90;;;;;;4971161;28;20589;-67
2022/05/06 09:34:45;;;;;;;13.73;12.23;;;15.20;99.90;;;;;;4984987;28;20564;-67
2022/05/06 09:37:38;;;;;;;16.90;13.03;;;15.30;99.90;;;;;;4979942;28;20568;-67
2022/05/06 09:40:29;;;;;;;13.43;12.13;;;15.40;99.90;;;;;;4981485;28;20468;-67
2022/05/06 09:43:19;;;;;;;15.37;13.17;;;15.40;99.90;;;;;;4983946;28;20683;-67
2022/05/06 09:46:20;;;;;;;15.30;12.77;;;15.50;99.90;;;;;;4977728;28;20471;-67
2022/05/06 09:49:10;;;;;;;13.77;12.07;;;15.60;99.90;;;;;;4989755;28;20472;-68
2022/05/06 09:52:19;;;;;;;13.93;10.77;;;15.70;99.90;;;;;;4982386;28;20481;-67
2022/05/06 09:55:10;;;;;;;13.77;11.97;;;15.80;99.90;;;;;;4982707;28;20459;-67
2022/05/06 09:57:59;;;;;;;12.20;10.90;;;16.00;99.90;;;;;;4982515;28;20509;-67
2022/05/06 10:00:47;;;;;;;13.63;11.00;;;16.10;99.90;;;;;;4984740;28;21009;-67
2022/05/06 10:03:37;;;;;;;13.33;11.90;;;16.10;99.90;;;;;;4977786;28;20489;-67
2022/05/06 10:06:26;;;;;;;11.73;10.50;;;16.10;99.90;;;;;;4979916;28;20462;-67
2022/05/06 10:09:18;;;;;;;12.03;9.80;;;16.20;99.90;;;;;;4978226;28;21045;-67
2022/05/06 10:12:11;;;;;;;15.90;11.17;;;16.30;99.90;;;;;;4986491;28;20549;-67
2022/05/06 10:15:02;;;;;;;13.50;10.57;;;16.40;99.90;;;;;;4985585;28;20469;-67
2022/05/06 10:17:52;;;;;;;12.20;10.80;;;16.40;99.90;;;;;;4983620;28;20464;-68
2022/05/06 10:20:58;;;;;;;12.37;11.07;;;16.60;99.90;;;;;;4991239;28;20558;-68
2022/05/06 10:23:52;;;;;;;11.23;10.13;;;16.70;99.90;;;;;;4983812;28;20582;-68
2022/05/06 10:26:45;;;;;;;10.23;9.23;;;16.80;99.90;;;;;;4982437;28;21013;-68
2022/05/06 10:33:19;;;;;;;10.43;9.43;;;17.00;99.90;;;;;;4942286;28;20511;-68
2022/05/06 10:36:08;;;;;;;11.30;10.20;;;17.10;99.90;;;;;;4940334;28;20498;-68
2022/05/06 10:38:56;;;;;;;10.93;9.83;;;17.20;99.90;;;;;;4974849;28;20492;-68
2022/05/06 10:41:59;;;;;;;12.03;8.70;;;17.20;99.90;;;;;;4967565;28;20647;-68
2022/05/06 10:44:48;;;;;;;9.10;8.20;;;17.30;99.90;;;;;;4980669;28;20872;-68
2022/05/06 10:47:51;;;;;;;9.17;8.27;;;17.40;99.90;;;;;;4986264;28;20527;-68
2022/05/06 10:50:39;;;;;;;12.03;10.50;;;17.60;99.90;;;;;;4979362;28;20449;-68
2022/05/06 10:53:34;;;;;;;11.67;10.53;;;17.70;99.90;;;;;;4993132;28;20567;-68
2022/05/06 10:56:22;;;;;;;11.93;10.63;;;17.70;99.90;;;;;;4990585;28;20449;-68
2022/05/06 10:59:19;;;;;;;11.97;10.80;;;17.80;99.90;;;;;;4989635;28;20997;-68
2022/05/06 11:02:12;;;;;;;10.17;9.17;;;17.90;99.90;;;;;;4984098;28;20507;-68
2022/05/06 11:05:02;;;;;;;10.07;9.10;;;17.90;99.90;;;;;;4988120;28;20550;-68
2022/05/06 11:07:54;;;;;;;12.43;10.90;;;17.90;99.90;;;;;;4986520;28;20456;-68
2022/05/06 11:10:42;;;;;;;10.07;9.07;;;18.00;99.90;;;;;;4988485;28;20632;-68
2022/05/06 11:13:52;;;;;;;11.47;10.33;;;18.00;99.90;;;;;;4989661;28;20469;-68
2022/05/06 11:16:40;;;;;;;10.97;9.87;;;18.10;99.90;;;;;;4988464;28;20613;-68
2022/05/06 11:19:35;;;;;;;12.13;10.93;;;18.10;99.90;;;;;;4993805;28;20868;-69
2022/05/06 11:22:25;;;;;;;10.33;9.37;;;18.20;99.90;;;;;;4969277;28;20583;-68
2022/05/06 11:25:16;;;;;;;11.53;10.33;;;18.20;99.90;;;;;;4976863;28;20453;-68
2022/05/06 11:28:12;;;;;;;13.33;10.80;;;18.30;99.90;;;;;;4969073;28;20697;-68
2022/05/06 11:31:01;;;;;;;10.73;9.63;;;18.40;99.90;;;;;;4978477;28;20457;-67
2022/05/06 11:33:49;;;;;;;10.30;9.30;;;18.60;99.90;;;;;;4979344;28;20495;-67
2022/05/06 11:36:37;;;;;;;9.40;8.17;;;18.60;99.90;;;;;;4986035;28;20523;-67
2022/05/06 11:39:33;;;;;;;8.87;7.97;;;18.70;99.90;;;;;;4980923;28;20498;-67
2022/05/06 11:42:22;;;;;;;7.97;6.90;;;18.90;99.90;;;;;;4976632;28;20484;-67
2022/05/06 11:48:22;;;;;;;6.77;5.90;;;19.10;99.90;;;;;;4991161;28;22346;-67
2022/05/06 11:51:13;;;;;;;7.70;7.00;;;19.10;99.90;;;;;;4986738;28;20460;-67
2022/05/06 11:54:02;;;;;;;7.57;6.90;;;19.20;99.90;;;;;;4983385;28;20515;-65
2022/05/06 11:56:58;;;;;;;9.90;8.60;;;19.30;99.90;;;;;;4987656;28;20488;-66
2022/05/06 11:59:47;;;;;;;8.83;7.93;;;19.50;99.90;;;;;;4987649;28;20477;-66
2022/05/06 12:02:35;;;;;;;9.00;7.63;;;19.70;99.90;;;;;;4988173;28;20770;-65
2022/05/06 12:05:24;;;;;;;6.83;6.33;;;19.70;99.90;;;;;;4979578;28;20476;-66
2022/05/06 12:08:25;;;;;;;12.63;7.93;;;19.80;99.90;;;;;;4977578;28;20477;-66
2022/05/06 12:11:13;;;;;;;9.40;7.10;;;19.90;99.90;;;;;;4973979;28;20452;-66
2022/05/06 12:14:07;;;;;;;7.93;7.13;;;20.10;99.90;;;;;;4983127;28;20978;-67
2022/05/06 12:16:56;;;;;;;11.77;8.17;;;20.20;99.90;;;;;;4981190;28;20453;-66
2022/05/06 12:19:46;;;;;;;9.90;7.10;;;20.40;99.90;;;;;;4976421;28;20476;-65
2022/05/06 12:22:34;;;;;;;7.90;7.20;;;20.50;99.90;;;;;;4976438;28;20496;-67
2022/05/06 12:25:23;;;;;;;6.90;6.27;;;20.50;99.90;;;;;;4983947;28;20602;-69
2022/05/06 12:28:15;;;;;;;7.20;6.60;;;20.50;99.90;;;;;;4981882;28;20496;-68
2022/05/06 12:31:06;;;;;;;7.63;6.87;;;20.40;99.90;;;;;;4973279;28;20493;-67
2022/05/06 12:34:04;;;;;;;7.53;6.83;;;20.30;99.90;;;;;;4971813;28;20670;-66
2022/05/06 12:36:52;;;;;;;7.43;6.67;;;20.40;99.90;;;;;;4983424;28;20449;-66
2022/05/06 12:39:41;;;;;;;6.47;5.87;;;20.50;99.90;;;;;;4984967;28;20484;-67
2022/05/06 12:42:30;;;;;;;6.33;5.80;;;20.60;99.90;;;;;;4987224;28;20489;-67
2022/05/06 12:45:39;;;;;;;6.13;4.93;;;20.70;99.90;;;;;;4984949;28;20517;-65
2022/05/06 12:51:33;;;;;;;5.50;5.00;;;20.70;99.90;;;;;;4959426;28;22494;-67
2022/05/06 12:54:22;;;;;;;5.20;4.70;;;20.70;99.90;;;;;;4983787;28;21103;-67
2022/05/06 12:57:10;;;;;;;5.60;5.10;;;20.80;99.90;;;;;;4988013;28;20487;-67
2022/05/06 12:59:58;;;;;;;5.73;4.83;;;20.70;99.90;;;;;;4989386;28;20567;-67
2022/05/06 13:02:47;;;;;;;5.53;4.50;;;20.80;99.90;;;;;;4987882;28;20488;-67
2022/05/06 13:05:37;;;;;;;6.60;5.30;;;20.80;99.90;;;;;;4982992;28;20965;-67
2022/05/06 13:08:27;;;;;;;4.43;4.03;;;20.90;99.90;;;;;;4973687;28;20472;-67
2022/05/06 13:11:15;;;;;;;5.30;4.90;;;20.90;99.90;;;;;;4991789;28;20984;-67
2022/05/06 13:14:03;;;;;;;6.00;5.40;;;21.00;99.90;;;;;;4986122;28;20491;-67
2022/05/06 13:16:53;;;;;;;5.80;5.07;;;20.90;99.90;;;;;;4979380;28;20480;-67
2022/05/06 13:19:41;;;;;;;6.80;4.77;;;21.00;99.90;;;;;;4982804;28;20497;-67
2022/05/06 13:22:31;;;;;;;6.10;5.60;;;21.10;99.90;;;;;;4988967;28;20516;-66
2022/05/06 13:25:19;;;;;;;5.70;5.20;;;21.20;99.90;;;;;;4981476;28;20464;-66
2022/05/06 13:28:07;;;;;;;5.80;5.30;;;21.10;99.90;;;;;;4981457;28;20476;-67
2022/05/06 13:30:56;;;;;;;6.27;5.77;;;21.20;99.90;;;;;;4985938;28;20555;-67
2022/05/06 13:33:44;;;;;;;6.70;6.10;;;21.20;99.90;;;;;;4979982;28;20476;-67
2022/05/06 13:36:32;;;;;;;6.47;5.87;;;21.20;99.90;;;;;;4984051;28;20465;-66
2022/05/06 13:39:22;;;;;;;5.70;5.20;;;21.20;99.90;;;;;;4978374;28;20526;-67
2022/05/06 13:42:10;;;;;;;5.70;4.67;;;21.10;99.90;;;;;;4985794;28;20481;-67
2022/05/06 13:44:58;;;;;;;5.20;4.80;;;21.10;99.90;;;;;;4992912;28;20464;-67
2022/05/06 13:47:46;;;;;;;5.77;5.17;;;21.10;99.90;;;;;;4988878;28;24801;-67
2022/05/06 13:50:35;;;;;;;5.50;5.00;;;21.10;99.90;;;;;;4979041;28;20448;-68
2022/05/06 13:53:23;;;;;;;5.80;5.30;;;21.00;99.90;;;;;;4983267;28;21965;-67
2022/05/06 13:59:18;;;;;;;5.60;5.10;;;21.10;99.90;;;;;;4981907;28;21016;-68
2022/05/06 14:02:06;;;;;;;5.20;4.80;;;21.10;99.90;;;;;;4984187;28;20489;-70
2022/05/06 14:04:55;;;;;;;4.90;4.43;;;21.10;99.90;;;;;;4981153;28;21066;-68
2022/05/06 14:07:46;;;;;;;6.77;5.43;;;21.10;99.90;;;;;;4982375;28;20552;-68
2022/05/06 14:10:34;;;;;;;5.53;5.10;;;21.20;99.90;;;;;;4963141;28;20468;-67
2022/05/06 14:13:24;;;;;;;5.23;4.77;;;21.40;99.90;;;;;;4980511;28;21024;-67
2022/05/06 14:16:12;;;;;;;6.70;5.13;;;21.50;99.90;;;;;;4975507;28;20461;-67
2022/05/06 14:19:00;;;;;;;6.40;5.80;;;21.50;99.90;;;;;;4981863;28;20479;-68
2022/05/06 14:21:49;;;;;;;5.23;4.73;;;21.50;99.90;;;;;;4982536;28;23282;-68
2022/05/06 14:24:37;;;;;;;5.60;5.10;;;21.60;99.90;;;;;;4979682;28;20471;-67
2022/05/06 14:27:25;;;;;;;5.90;5.40;;;21.70;99.90;;;;;;4982971;28;20547;-67
2022/05/06 14:30:15;;;;;;;4.80;4.40;;;21.50;99.90;;;;;;4976211;28;20508;-67
2022/05/06 14:33:04;;;;;;;4.83;4.40;;;21.80;99.90;;;;;;4979889;28;20473;-68
2022/05/06 14:35:52;;;;;;;6.50;5.83;;;22.50;99.90;;;;;;4983784;28;20579;-68
2022/05/06 14:38:40;;;;;;;6.53;6.03;;;22.40;99.90;;;;;;4972886;28;20485;-68
2022/05/06 14:41:28;;;;;;;7.70;6.00;;;22.10;99.90;;;;;;4989078;28;20982;-68
2022/05/06 14:44:16;;;;;;;5.50;5.10;;;21.80;99.90;;;;;;4990906;28;20548;-68
2022/05/06 14:47:09;;;;;;;6.57;6.00;;;21.70;99.90;;;;;;4992044;28;20458;-68
2022/05/06 14:49:58;;;;;;;5.40;4.83;;;21.50;99.90;;;;;;4989358;28;20485;-68
2022/05/06 14:52:46;;;;;;;5.70;4.90;;;21.40;99.90;;;;;;4990670;28;20483;-68
2022/05/06 14:55:34;;;;;;;5.80;4.77;;;21.30;99.90;;;;;;4985589;28;20488;-67
2022/05/06 14:58:22;;;;;;;6.57;5.87;;;21.30;99.90;;;;;;4989148;28;20824;-68
2022/05/06 15:01:10;;;;;;;6.73;5.13;;;21.30;99.90;;;;;;4994932;28;20476;-68
2022/05/06 15:04:00;;;;;;;5.33;4.87;;;21.20;99.90;;;;;;4985862;28;20522;-68
2022/05/06 15:06:48;;;;;;;6.37;5.73;;;21.20;99.90;;;;;;4985733;28;20465;-68
2022/05/06 15:09:36;;;;;;;5.27;4.80;;;21.10;99.90;;;;;;4988225;28;20974;-67
2022/05/06 15:12:25;;;;;;;5.80;5.20;;;21.10;99.90;;;;;;4983503;28;20523;-68
2022/05/06 15:15:14;;;;;;;5.83;5.23;;;21.10;99.90;;;;;;4988580;28;20462;-67
2022/05/06 15:21:06;;;;;;;5.30;4.90;;;21.10;99.90;;;;;;4988351;28;20449;-68
2022/05/06 15:23:54;;;;;;;6.13;5.40;;;21.00;99.90;;;;;;4980257;28;20528;-68
2022/05/06 15:26:44;;;;;;;5.53;5.03;;;20.90;99.90;;;;;;4979650;28;20454;-68